createdAt,value
2019-05-01T00:01:25.386Z,100.00
2019-05-01T00:07:01.591Z,100.00
2019-05-01T00:12:41.943Z,100.00
2019-05-01T00:18:41.246Z,100.00
2019-05-01T00:21:10.669Z,100.00
2019-05-01T00:23:40.011Z,100.00
2019-05-01T00:26:09.366Z,100.00
2019-05-01T00:28:38.689Z,100.00
2019-05-01T00:31:08.026Z,100.00
2019-05-01T00:33:37.392Z,100.00
2019-05-01T00:36:06.728Z,100.00
2019-05-01T00:38:36.070Z,100.00
2019-05-01T00:41:05.418Z,100.00
2019-05-01T00:43:34.752Z,100.00
2019-05-01T00:46:05.068Z,100.00
2019-05-01T00:48:34.403Z,100.00
2019-05-01T00:51:03.742Z,100.00
2019-05-01T00:53:33.088Z,100.00
2019-05-01T00:56:15.972Z,100.00
2019-05-01T00:59:03.108Z,100.00
2019-05-01T01:01:43.100Z,100.00
2019-05-01T01:04:14.088Z,100.00
2019-05-01T01:06:43.425Z,100.00
2019-05-01T01:09:13.718Z,100.00
2019-05-01T01:11:43.048Z,100.00
2019-05-01T01:14:12.387Z,100.00
2019-05-01T01:16:41.733Z,100.00
2019-05-01T01:19:11.067Z,100.00
2019-05-01T01:21:41.168Z,100.00
2019-05-01T01:24:10.810Z,100.00
2019-05-01T01:26:40.486Z,100.00
2019-05-01T01:29:10.702Z,100.00
2019-05-01T01:31:40.104Z,100.00
2019-05-01T01:34:09.511Z,100.00
2019-05-01T01:36:38.859Z,100.00
2019-05-01T01:39:08.263Z,100.00
2019-05-01T01:41:37.666Z,100.00
2019-05-01T01:44:09.091Z,100.00
2019-05-01T01:46:40.232Z,100.00
2019-05-01T01:49:09.712Z,100.00
2019-05-01T01:51:39.191Z,100.00
2019-05-01T01:54:08.597Z,100.00
2019-05-01T01:56:38.282Z,100.00
2019-05-01T01:59:07.862Z,100.00
2019-05-01T02:01:55.220Z,100.00
2019-05-01T02:04:29.169Z,100.00
2019-05-01T02:06:58.506Z,100.00
2019-05-01T02:09:28.488Z,100.00
2019-05-01T02:11:58.000Z,100.00
2019-05-01T02:14:27.476Z,100.00
2019-05-01T02:16:56.826Z,100.00
2019-05-01T02:19:26.232Z,100.00
2019-05-01T02:21:55.592Z,100.00
2019-05-01T02:24:24.951Z,100.00
2019-05-01T02:26:55.998Z,100.00
2019-05-01T02:29:29.935Z,100.00
2019-05-01T02:32:00.314Z,100.00
2019-05-01T02:34:31.002Z,100.00
2019-05-01T02:37:03.249Z,100.00
2019-05-01T02:39:34.949Z,100.00
2019-05-01T02:42:04.832Z,100.00
2019-05-01T02:44:37.263Z,100.00
2019-05-01T02:47:09.394Z,100.00
2019-05-01T02:49:44.610Z,100.00
2019-05-01T02:52:14.463Z,100.00
2019-05-01T02:54:47.489Z,100.00
2019-05-01T02:57:20.491Z,100.00
2019-05-01T02:59:52.690Z,100.00
2019-05-01T03:02:24.888Z,100.00
2019-05-01T03:04:56.065Z,100.00
2019-05-01T03:07:27.886Z,100.00
2019-05-01T03:09:57.377Z,100.00
2019-05-01T03:12:29.765Z,100.00
2019-05-01T03:15:01.809Z,100.00
2019-05-01T03:17:36.763Z,100.00
2019-05-01T03:20:14.757Z,100.00
2019-05-01T03:22:45.812Z,100.00
2019-05-01T03:25:15.442Z,100.00
2019-05-01T03:27:44.922Z,100.00
2019-05-01T03:30:14.550Z,100.00
2019-05-01T03:32:43.940Z,100.00
2019-05-01T03:35:13.274Z,100.00
2019-05-01T03:37:42.691Z,100.00
2019-05-01T03:40:13.833Z,100.00
2019-05-01T03:42:43.432Z,100.00
2019-05-01T03:45:12.917Z,100.00
2019-05-01T03:47:42.425Z,100.00
2019-05-01T03:50:12.058Z,100.00
2019-05-01T03:52:41.811Z,100.00
2019-05-01T03:55:11.490Z,100.00
2019-05-01T03:57:42.869Z,100.00
2019-05-01T04:00:15.021Z,100.00
2019-05-01T04:03:02.995Z,100.00
2019-05-01T04:05:32.345Z,100.00
2019-05-01T04:08:01.849Z,100.00
2019-05-01T04:10:31.478Z,100.00
2019-05-01T04:13:00.890Z,100.00
2019-05-01T04:15:30.312Z,100.00
2019-05-01T04:18:01.307Z,100.00
2019-05-01T04:20:30.723Z,100.00
2019-05-01T04:23:00.519Z,100.00
2019-05-01T04:25:30.001Z,100.00
2019-05-01T04:28:01.526Z,100.00
2019-05-01T04:30:49.173Z,100.00
2019-05-01T04:33:20.229Z,100.00
2019-05-01T04:35:51.198Z,100.00
2019-05-01T04:38:20.552Z,100.00
2019-05-01T04:40:49.973Z,100.00
2019-05-01T04:43:21.424Z,100.00
2019-05-01T04:45:51.913Z,100.00
2019-05-01T04:48:22.399Z,100.00
2019-05-01T04:50:52.406Z,100.00
2019-05-01T04:53:21.937Z,100.00
2019-05-01T04:55:51.334Z,100.00
2019-05-01T04:58:20.906Z,100.00
2019-05-01T05:00:50.704Z,100.00
2019-05-01T05:03:22.014Z,100.00
2019-05-01T05:05:51.440Z,100.00
2019-05-01T05:08:20.864Z,100.00
2019-05-01T05:10:51.989Z,100.00
2019-05-01T05:13:26.398Z,100.00
2019-05-01T05:16:03.659Z,100.00
2019-05-01T05:18:34.038Z,100.00
2019-05-01T05:21:03.963Z,100.00
2019-05-01T05:23:33.973Z,100.00
2019-05-01T05:26:04.164Z,100.00
2019-05-01T05:28:34.246Z,100.00
2019-05-01T05:31:04.685Z,100.00
2019-05-01T05:33:36.030Z,100.00
2019-05-01T05:36:07.140Z,100.00
2019-05-01T05:38:45.317Z,100.00
2019-05-01T05:41:15.593Z,100.00
2019-05-01T05:43:45.015Z,100.00
2019-05-01T05:46:14.918Z,100.00
2019-05-01T05:48:44.334Z,100.00
2019-05-01T05:51:19.053Z,100.00
2019-05-01T05:53:55.837Z,100.00
2019-05-01T05:56:30.044Z,100.00
2019-05-01T05:59:04.117Z,100.00
2019-05-01T06:01:37.123Z,100.00
2019-05-01T06:04:25.672Z,100.00
2019-05-01T06:07:13.796Z,100.00
2019-05-01T06:09:55.200Z,100.00
2019-05-01T06:12:29.429Z,100.00
2019-05-01T06:15:06.102Z,100.00
2019-05-01T06:17:41.062Z,100.00
2019-05-01T06:20:12.112Z,100.00
2019-05-01T06:23:01.745Z,100.00
2019-05-01T06:25:35.946Z,100.00
2019-05-01T06:28:05.734Z,100.00
2019-05-01T06:30:35.727Z,100.00
2019-05-01T06:33:09.530Z,100.00
2019-05-01T06:35:41.567Z,100.00
2019-05-01T06:38:31.598Z,100.00
2019-05-01T06:41:06.504Z,100.00
2019-05-01T06:43:57.109Z,100.00
2019-05-01T06:50:27.116Z,100.00
2019-05-01T06:56:30.913Z,100.00
2019-05-01T06:59:11.018Z,100.00
2019-05-01T07:05:03.137Z,100.00
2019-05-01T07:16:17.178Z,100.00
2019-05-01T07:18:46.585Z,100.00
2019-05-01T07:21:15.921Z,100.00
2019-05-01T07:24:28.058Z,100.00
2019-05-01T07:27:01.723Z,99.57
2019-05-01T07:32:41.163Z,100.00
2019-05-01T07:35:09.143Z,97.52
2019-05-01T07:38:18.627Z,95.27
2019-05-01T07:40:48.213Z,96.62
2019-05-01T07:43:36.808Z,97.45
2019-05-01T07:49:01.888Z,95.96
2019-05-01T07:51:31.359Z,92.09
2019-05-01T07:54:21.502Z,89.62
2019-05-01T07:56:50.989Z,89.33
2019-05-01T07:59:22.859Z,92.98
2019-05-01T08:04:52.775Z,84.70
2019-05-01T08:07:22.116Z,85.71
2019-05-01T08:09:51.599Z,87.77
2019-05-01T08:12:23.919Z,85.38
2019-05-01T08:19:04.334Z,87.91
2019-05-01T08:22:01.761Z,84.71
2019-05-01T08:24:35.739Z,86.46
2019-05-01T08:30:48.067Z,77.77
2019-05-01T08:33:44.824Z,82.50
2019-05-01T08:36:42.606Z,80.10
2019-05-01T08:39:27.699Z,78.51
2019-05-01T08:41:57.134Z,78.51
2019-05-01T08:45:06.776Z,77.82
2019-05-01T08:50:40.828Z,76.11
2019-05-01T08:53:10.168Z,76.11
2019-05-01T08:55:51.704Z,72.31
2019-05-01T08:58:21.037Z,72.31
2019-05-01T09:01:02.286Z,67.47
2019-05-01T09:03:43.605Z,69.77
2019-05-01T09:06:12.949Z,67.60
2019-05-01T09:08:42.281Z,67.60
2019-05-01T09:11:11.550Z,69.38
2019-05-01T09:13:40.895Z,65.37
2019-05-01T09:16:10.228Z,62.38
2019-05-01T09:18:39.560Z,63.75
2019-05-01T09:21:08.906Z,62.99
2019-05-01T09:23:38.239Z,62.99
2019-05-01T09:26:26.697Z,63.22
2019-05-01T09:29:16.139Z,57.16
2019-05-01T09:31:52.077Z,61.34
2019-05-01T09:34:21.413Z,59.25
2019-05-01T09:36:50.820Z,55.84
2019-05-01T09:42:22.856Z,56.46
2019-05-01T09:44:51.923Z,55.27
2019-05-01T09:50:30.423Z,51.50
2019-05-01T09:53:19.970Z,55.14
2019-05-01T09:56:09.162Z,54.42
2019-05-01T09:58:38.482Z,54.24
2019-05-01T10:01:07.895Z,53.31
2019-05-01T10:03:37.229Z,53.08
2019-05-01T10:06:06.567Z,51.05
2019-05-01T10:08:39.906Z,53.67
2019-05-01T10:11:12.184Z,54.50
2019-05-01T10:13:41.604Z,54.06
2019-05-01T10:16:11.076Z,52.90
2019-05-01T10:18:52.154Z,53.45
2019-05-01T10:21:22.368Z,54.53
2019-05-01T10:24:01.960Z,51.66
2019-05-01T10:30:01.574Z,47.30
2019-05-01T10:35:51.901Z,50.09
2019-05-01T10:38:21.232Z,52.41
2019-05-01T10:40:50.568Z,52.27
2019-05-01T10:43:19.923Z,52.23
2019-05-01T10:45:49.256Z,52.83
2019-05-01T10:48:18.651Z,48.88
2019-05-01T10:50:48.036Z,51.61
2019-05-01T10:53:17.335Z,47.59
2019-05-01T10:55:46.673Z,47.14
2019-05-01T10:58:17.950Z,47.55
2019-05-01T11:01:46.046Z,47.95
2019-05-01T11:07:09.856Z,47.29
2019-05-01T11:09:39.224Z,49.25
2019-05-01T11:12:08.565Z,47.61
2019-05-01T11:14:37.895Z,46.37
2019-05-01T11:17:07.388Z,46.55
2019-05-01T11:19:36.726Z,47.56
2019-05-01T11:22:06.135Z,44.11
2019-05-01T11:24:47.544Z,45.56
2019-05-01T11:27:16.877Z,44.85
2019-05-01T11:29:46.219Z,45.84
2019-05-01T11:32:34.672Z,46.50
2019-05-01T11:38:56.985Z,48.68
2019-05-01T11:44:06.424Z,45.95
2019-05-01T11:46:35.755Z,46.21
2019-05-01T11:49:05.279Z,45.04
2019-05-01T11:51:34.633Z,44.65
2019-05-01T11:54:04.133Z,44.64
2019-05-01T11:56:33.473Z,46.12
2019-05-01T11:59:03.129Z,45.79
2019-05-01T12:01:32.509Z,45.82
2019-05-01T12:04:01.810Z,45.58
2019-05-01T12:06:31.154Z,46.37
2019-05-01T12:09:00.483Z,46.38
2019-05-01T12:14:10.067Z,47.31
2019-05-01T12:16:58.516Z,46.32
2019-05-01T12:19:46.978Z,46.60
2019-05-01T12:22:23.716Z,46.33
2019-05-01T12:24:53.065Z,44.31
2019-05-01T12:27:22.396Z,46.94
2019-05-01T12:29:51.736Z,43.92
2019-05-01T12:32:21.081Z,43.54
2019-05-01T12:34:50.419Z,45.79
2019-05-01T12:37:38.889Z,45.41
2019-05-01T12:43:12.287Z,43.70
2019-05-01T12:48:42.763Z,45.59
2019-05-01T12:51:12.208Z,45.10
2019-05-01T12:54:00.679Z,44.46
2019-05-01T12:59:10.309Z,43.37
2019-05-01T13:04:28.029Z,44.25
2019-05-01T13:07:18.153Z,43.78
2019-05-01T13:09:47.495Z,42.90
2019-05-01T13:12:16.831Z,43.25
2019-05-01T13:14:46.176Z,43.38
2019-05-01T13:17:15.525Z,42.75
2019-05-01T13:19:44.905Z,41.73
2019-05-01T13:22:14.211Z,43.96
2019-05-01T13:25:02.682Z,43.29
2019-05-01T13:30:52.691Z,42.94
2019-05-01T13:33:22.108Z,42.41
2019-05-01T13:35:51.490Z,44.63
2019-05-01T13:38:20.915Z,45.48
2019-05-01T13:40:50.494Z,42.90
2019-05-01T13:43:19.839Z,44.15
2019-05-01T13:45:49.168Z,43.63
2019-05-01T13:48:18.573Z,43.48
2019-05-01T13:50:47.913Z,44.36
2019-05-01T13:53:22.555Z,41.91
2019-05-01T13:55:51.909Z,42.63
2019-05-01T13:58:21.497Z,42.18
2019-05-01T14:00:50.835Z,44.69
2019-05-01T14:03:20.416Z,42.65
2019-05-01T14:05:49.758Z,42.44
2019-05-01T14:08:19.198Z,42.97
2019-05-01T14:10:48.519Z,41.44
2019-05-01T14:13:17.862Z,40.80
2019-05-01T14:15:47.202Z,40.06
2019-05-01T14:18:16.534Z,41.71
2019-05-01T14:28:45.182Z,39.95
2019-05-01T14:31:14.517Z,39.57
2019-05-01T14:33:43.878Z,39.40
2019-05-01T14:36:13.576Z,37.95
2019-05-01T14:38:42.910Z,39.88
2019-05-01T14:41:12.256Z,39.25
2019-05-01T14:43:41.619Z,40.16
2019-05-01T14:46:10.956Z,41.82
2019-05-01T14:48:40.298Z,38.99
2019-05-01T14:51:09.633Z,39.82
2019-05-01T14:53:39.084Z,38.11
2019-05-01T14:56:08.416Z,38.40
2019-05-01T14:58:37.779Z,39.96
2019-05-01T15:01:07.195Z,39.41
2019-05-01T15:03:36.523Z,40.38
2019-05-01T15:06:25.196Z,38.94
2019-05-01T15:08:54.532Z,37.61
2019-05-01T15:11:23.870Z,38.07
2019-05-01T15:14:12.327Z,38.20
2019-05-01T15:17:00.768Z,40.31
2019-05-01T15:22:25.706Z,39.42
2019-05-01T15:24:55.054Z,40.25
2019-05-01T15:27:24.397Z,40.21
2019-05-01T15:29:53.732Z,39.33
2019-05-01T15:32:23.072Z,40.18
2019-05-01T15:34:52.476Z,37.38
2019-05-01T15:37:21.822Z,38.54
2019-05-01T15:45:36.736Z,37.52
2019-05-01T15:48:06.086Z,39.82
2019-05-01T15:50:54.508Z,38.87
2019-05-01T15:53:23.866Z,40.19
2019-05-01T15:55:53.228Z,39.58
2019-05-01T15:58:22.562Z,40.25
2019-05-01T16:00:51.923Z,39.93
2019-05-01T16:03:21.262Z,35.94
2019-05-01T16:05:50.606Z,36.12
2019-05-01T16:08:19.959Z,35.18
2019-05-01T16:13:28.381Z,34.87
2019-05-01T16:15:57.719Z,35.16
2019-05-01T16:18:27.060Z,35.16
2019-05-01T16:20:56.397Z,35.31
2019-05-01T16:23:25.731Z,35.99
2019-05-01T16:25:55.084Z,35.95
2019-05-01T16:28:24.409Z,36.89
2019-05-01T16:30:53.757Z,37.49
2019-05-01T16:33:23.091Z,37.93
2019-05-01T16:35:52.660Z,37.19
2019-05-01T16:38:41.115Z,37.53
2019-05-01T16:44:19.560Z,39.02
2019-05-01T16:46:48.895Z,41.93
2019-05-01T16:49:18.242Z,43.31
2019-05-01T16:51:47.646Z,44.86
2019-05-01T16:54:16.975Z,43.83
2019-05-01T16:56:46.347Z,42.94
2019-05-01T16:59:15.659Z,42.20
2019-05-01T17:02:04.185Z,41.55
2019-05-01T17:04:52.633Z,41.34
2019-05-01T17:07:41.103Z,38.64
2019-05-01T17:13:44.805Z,41.00
2019-05-01T17:16:14.207Z,41.14
2019-05-01T17:18:43.559Z,39.53
2019-05-01T17:21:12.906Z,44.39
2019-05-01T17:23:42.240Z,45.84
2019-05-01T17:26:11.582Z,43.69
2019-05-01T17:28:40.912Z,44.63
2019-05-01T17:31:10.691Z,45.83
2019-05-01T17:33:40.089Z,47.06
2019-05-01T17:36:09.491Z,45.98
2019-05-01T17:38:48.982Z,47.23
2019-05-01T17:41:22.619Z,45.48
2019-05-01T17:44:14.850Z,44.18
2019-05-01T17:46:46.963Z,42.79
2019-05-01T17:49:20.703Z,45.18
2019-05-01T17:51:50.038Z,44.11
2019-05-01T17:54:19.370Z,45.05
2019-05-01T18:03:05.368Z,45.69
2019-05-01T18:05:56.220Z,47.05
2019-05-01T18:11:47.312Z,46.89
2019-05-01T18:14:41.611Z,47.82
2019-05-01T18:17:10.951Z,49.66
2019-05-01T18:19:40.294Z,50.84
2019-05-01T18:28:29.874Z,51.52
2019-05-01T18:33:44.856Z,52.59
2019-05-01T18:36:14.188Z,52.22
2019-05-01T18:41:43.139Z,53.93
2019-05-01T18:44:12.489Z,56.50
2019-05-01T18:46:41.822Z,50.77
2019-05-01T18:52:13.419Z,56.59
2019-05-01T18:54:42.753Z,57.90
2019-05-01T18:57:17.724Z,57.79
2019-05-01T18:59:59.405Z,56.22
2019-05-01T19:02:28.756Z,57.44
2019-05-01T19:05:17.433Z,58.70
2019-05-01T19:07:46.847Z,59.92
2019-05-01T19:10:16.191Z,60.06
2019-05-01T19:12:45.529Z,62.25
2019-05-01T19:15:14.876Z,64.08
2019-05-01T19:17:44.232Z,65.17
2019-05-01T19:20:13.660Z,61.91
2019-05-01T19:22:42.961Z,64.95
2019-05-01T19:25:23.971Z,64.43
2019-05-01T19:28:07.149Z,65.92
2019-05-01T19:31:16.408Z,65.92
2019-05-01T19:37:09.090Z,68.35
2019-05-01T19:39:43.797Z,68.35
2019-05-01T19:45:14.956Z,69.23
2019-05-01T19:48:03.656Z,68.46
2019-05-01T19:50:32.985Z,68.46
2019-05-01T19:53:02.445Z,70.60
2019-05-01T19:55:44.865Z,73.54
2019-05-01T19:58:26.930Z,78.10
2019-05-01T20:01:38.446Z,78.10
2019-05-01T20:04:16.814Z,76.80
2019-05-01T20:06:58.354Z,78.12
2019-05-01T20:09:27.683Z,76.42
2019-05-01T20:12:16.368Z,80.17
2019-05-01T20:14:45.799Z,80.17
2019-05-01T20:17:34.480Z,78.70
2019-05-01T20:23:35.799Z,77.06
2019-05-01T20:26:05.137Z,77.06
2019-05-01T20:28:34.484Z,76.97
2019-05-01T20:31:25.783Z,77.87
2019-05-01T20:34:00.237Z,77.87
2019-05-01T20:36:29.572Z,82.24
2019-05-01T20:39:11.536Z,77.09
2019-05-01T20:41:40.886Z,77.09
2019-05-01T20:44:10.216Z,79.82
2019-05-01T20:46:39.565Z,80.74
2019-05-01T20:49:08.909Z,80.97
2019-05-01T20:51:38.238Z,80.97
2019-05-01T20:54:07.751Z,79.81
2019-05-01T20:59:35.182Z,79.19
2019-05-01T21:02:09.640Z,79.19
2019-05-01T21:04:58.099Z,77.80
2019-05-01T21:11:06.024Z,76.63
2019-05-01T21:13:38.972Z,76.59
2019-05-01T21:16:08.320Z,78.40
2019-05-01T21:18:37.654Z,83.63
2019-05-01T21:21:07.344Z,83.62
2019-05-01T21:23:36.699Z,82.40
2019-05-01T21:26:06.038Z,85.81
2019-05-01T21:28:35.375Z,87.95
2019-05-01T21:31:04.721Z,89.52
2019-05-01T21:33:34.282Z,87.73
2019-05-01T21:36:13.940Z,88.02
2019-05-01T21:38:43.270Z,87.43
2019-05-01T21:41:12.604Z,88.14
2019-05-01T21:43:42.488Z,86.98
2019-05-01T21:46:33.937Z,88.00
2019-05-01T21:49:08.771Z,88.23
2019-05-01T21:51:42.380Z,87.06
2019-05-01T21:54:28.237Z,85.33
2019-05-01T21:56:57.808Z,83.87
2019-05-01T21:59:27.138Z,81.71
2019-05-01T22:01:56.579Z,84.14
2019-05-01T22:04:28.002Z,84.74
2019-05-01T22:07:02.568Z,83.08
2019-05-01T22:12:14.279Z,85.24
2019-05-01T22:23:59.131Z,89.35
2019-05-01T22:32:34.121Z,93.01
2019-05-01T22:35:14.749Z,95.75
2019-05-01T22:37:44.095Z,97.18
2019-05-01T22:43:14.990Z,94.11
2019-05-01T22:45:44.390Z,95.27
2019-05-01T22:48:13.768Z,96.15
2019-05-01T22:50:43.108Z,94.76
2019-05-01T22:53:13.331Z,95.16
2019-05-01T22:55:49.116Z,96.07
2019-05-01T22:58:18.425Z,95.73
2019-05-01T23:01:06.952Z,95.39
2019-05-01T23:03:55.401Z,97.60
2019-05-01T23:06:24.883Z,97.03
2019-05-01T23:08:54.210Z,96.25
2019-05-01T23:14:18.823Z,96.92
2019-05-01T23:22:43.420Z,95.52
2019-05-01T23:25:27.323Z,95.15
2019-05-01T23:27:50.073Z,93.48
2019-05-01T23:34:08.488Z,96.87
2019-05-01T23:36:37.819Z,97.86
2019-05-01T23:39:07.156Z,96.30
2019-05-01T23:41:45.672Z,96.93
2019-05-01T23:44:26.699Z,98.21
2019-05-01T23:46:56.039Z,97.60
2019-05-01T23:49:25.385Z,98.57
2019-05-01T23:51:58.641Z,97.96
2019-05-01T23:54:44.852Z,99.58
2019-05-01T23:57:14.894Z,100.00
